Aérodrome :
LOGIN :

S'inscrire | Disclaimer

   EN    FR    IT 

 










Légende :    VFR   VFR Marginal   IFR   IFR Intensif   IFR Très Intensif
Visi : 
Plafond : 
>= 8 km
>= 3000ft
5 à 8 km
1000 à 3000 ft
1500m à 5 km
500 à 1000 ft
800 à 1500m
200 à 500 ft
< 800m
< 200 ft
Symboles :   Orages  Brouillard  Fortes neiges  Fortes précipitations  Vent > 20 kt
SIGMETs :   Divers  Orages  Givrage  Turbulence  Onde Orograph.  Cendres Volcan.







- Altitude de l'aérodrome : 29 ft
- Code IATA : SVG


ENZV - Sola

DERNIER METAR :
  • 230720Z 18025G35KT 6000 RADZ BKN010 10/09 Q0974 TEMPO BKN015

METARs EXPIRÉS :
  • 230650Z 18022KT 8000 RADZ FEW006 BKN010 10/09 Q0974 TEMPO BKN015
  • 230620Z 17023G35KT 8000 RADZ FEW006 BKN011 10/09 Q0974 TEMPO BKN015
  • 230550Z 17022G33KT 7000 RADZ FEW006 BKN012 10/09 Q0974 NOSIG
  • 230520Z 17022KT 9000 RA FEW005 BKN014 10/09 Q0975 NOSIG
  • 230450Z 17023KT 9000 BKN015 11/08 Q0975

TAF TAF ENZV
Valide du 23 à 06h jusqu'au 24 à 06h UTC


2306/2406 18020KT 9999 -RA FEW005 BKN014
TEMPO 2306/2312 18025G35KT 3000 RADZ BR BKN005
BECMG 2312/2315 24020G30KT -SHRA FEW015TCU BKN025
TEMPO 2315/2406 4000 SHRA BKN012CB
Pas de NOTAMs connus pour ce terrain.
6 SIGMETs publiés pour la FIR Norway (ENOR) :
 
Turbulence forte
ENSV SIGMET B02 VALID 230600/230900 ENVV
ENOR NORWAY FIR OCNL SEV TURB FCST WI N5800 E00730 - N5830 E00530 - N6000 E00500 - N6000 E00730 - N5800 E00730 SFC/FL100 STNR WKN=
Turbulence forte
ENOS SIGMET A04 VALID 230600/231000 ENMI
ENOR NORWAY FIR OCNL SEV TURB FCST WI N5745 E00730 - N5900 E00730 - N6000 E01030 - N6000 E01200 - N5900 E01145 - N5900 E01030 - N5745 E00730 SFC/FL080 STNR NC=
Onde orographique forte
ENOS SIGMET A03 VALID 230500/230900 ENMI
ENOR NORWAY FIR OCNL SEV MTW FCST WI N6015 E00730 - N6200 E00730 - N6200 E01030 - N6015 E00730 SFC/FL160 STNR NC=
Givrage fort avec pluie surfondue
ENOS SIGMET A02 VALID 230400/230800 ENMI
ENOR NORWAY FIR OCNL SEV ICE (FZRA) FCST WI N6130 E01245 - N6000 E01000 - N5930 E00730 - N6030 E00730 - N6200 E01000 - N6200 E01215 - N6130 E01245 SFC/FL050 MOV N 10KT WKN=
Onde orographique forte
ENBD SIGMET D02 VALID 230400/230800 ENVN
ENOR NORWAY FIR SEV MTW FCST WI N6500 E01320 - N6500 E01040 - N6800 E01500 - N7000 E01800 - N7000 E02200 - N6700 E01800 - N6500 E01320 SFC/FL150 STNR NC=
Onde orographique forte
ENBD SIGMET C02 VALID 230500/230900 ENVV
ENOR NORWAY FIR OCNL SEV MTW FCST WI N6500 E01030 - N6500 E01410 - N6300 E01200 - N6230 E01030 - N6230 E00830 - N6300 E01000 - N6500 E01030 SFC/FL100 STNR NC=



MET'MAP, la Météo Aéronautique d'un coup d'oeil ! - Copyright ORBIFLY Décembre 2007 - Disclaimer

ORBIFLY MET'MAP TEAM :

Programmation & Développement : Alexandra Zaïnal
Conception & Développement : Baudouin d'Aumeries
Co-Programmation & Développement : Marc-Olivier Méhu
Soutien technique & logistique : Manuel Goepfert

Contact : metmap@orbifly.com




SOURCES & CREDITS :

   NOAA